Bowen, Queensland

8:34 PM AEST on September 17, 2014 (GMT +1000)
Whitsunday | Change Station
CLOSE
Current Station
Airport
Location: Proserpine,
Elevation: 66 ft
Nearby Weather Stations

Elev 66 ft 20.49 °S, 148.55 °E | Updated 34 minutes ago

Clear
Clear
68 °F
Feels Like 68 °F
N
6
Wind Variable Wind from North

Today
High -- | Low -- °F
--% Chance of Precip.
Yesterday
High -- | Low -- °F
Precip. -- in
6:01 AM 6:02 PM
Last Quarter, 37% visible
Pressure 30.01 in
Visibility 6.2 miles
Clouds
Dew Point 57 °F
Humidity 68%
Rainfall 0.00 in
Snow Depth Not available.
UV Not available.
Pollen Not available.
Air Quality Not available.
Flu Activity Not available.
METAR YBPN 171000Z AUTO 36005KT 9999 // NCD 20/14 Q1016

More Conditions Fewer Conditions

Pressure 30.01 in
Visibility 6.2 miles
Clouds
Dew Point 57 °F
Humidity 68%
Rainfall 0.00 in
Snow Depth Not available.
UV Not available.
Pollen Not available.
Air Quality Not available.
Flu Activity Not available.
METAR YBPN 171000Z AUTO 36005KT 9999 // NCD 20/14 Q1016

More Conditions Fewer Conditions

10-Day Weather Forecast

Almanac

Astronomy

Sep. 17, 2014 Rise Set
Actual Time 6:01 AM AEST 6:02 PM AEST
Civil Twilight 5:40 AM AEST 6:24 PM AEST
Nautical Twilight 5:14 AM AEST 6:49 PM AEST
Astronomical Twilight 4:48 AM AEST 7:15 PM AEST
Moon 12:52 AM AEST 12:18 PM AEST
Length of Visible Light 12h 44m
Length of Day
12h 00m
Tomorrow will be 1m 7s longer.
Last Quarter, 37% of the Moon is Illuminated
Today
Last Quarter
Sep 24
New
Oct 1
First Quarter
Oct 8
Full
Oct 15
Last Quarter

Yesterday's Extremes

Country Highs Country Lows

Community

WunderPhotos

Upload Photos

1,753,993 photos uploaded!

Nearby

Snow Depth

Not available.

Earthquake Activity

City Distance Mag. Time & Date
No recent earthquake activity has been reported nearby.
Minimum magnitude displayed is 2.5.

Coastal Water Temperatures

Place Temperature
No Stations Reporting

Nearby Weather Stations